^^
Station Historical Data
Daily Summary for February 23, 2017 Units:  Both    English   Metric
« Previous Day
Next Day »
Daily Weekly Monthly Yearly Custom
  High: Low: Average:
Temperature: 82.9 °F /  28.3 °C 57.7 °F /  14.3 °C 71.2 °F /  21.8 °C
Dew Point: 55.6 °F /  13.1 °C 45.3 °F /  7.4 °C 51 °F /  10.6 °C
Humidity: 81% 29% 52%
Wind Speed: 11.0mph /  17.7km/h - 1.5mph /  2.4km/h
Wind Gust: 21.0mph /  33.8km/h - -
Wind- - SSE
Pressure: 29.79 in /  1008.7 hPa 29.67 in /  1004.6 hPa -
Precipitation: 0.00 in /  0 mm    
Historical Graphs
 
 
Tabular Data for February 23, 2017
Time Temperature Dew Point Pressure Wind Wind Speed Wind Gust Humidity Rainfall Rate (Hourly) solar Conditions
00:01 64.2 °F /  17.9 °C 51.4 °F /  10.8 °C 29.79in /  1008.7hPa SSE 8.9mph /  14.3km/h 10.0mph /  16.1km/h 63% 0.00in /  0mm 0.0 W/m2
00:07 64.9 °F /  18.3 °C 52.5 °F /  11.4 °C 29.79in /  1008.7hPa SSE 6.9mph /  11.1km/h 8.0mph /  12.9km/h 64% 0.00in /  0mm 0.0 W/m2
00:13 65.5 °F /  18.6 °C 53.4 °F /  11.9 °C 29.79in /  1008.7hPa SSW 4.0mph /  6.4km/h 7.0mph /  11.3km/h 65% 0.00in /  0mm 0.0 W/m2
00:19 65.5 °F /  18.6 °C 53.8 °F /  12.1 °C 29.79in /  1008.7hPa Calm   4.0mph /  6.4km/h 66% 0.00in /  0mm 0.0 W/m2
00:26 65.5 °F /  18.6 °C 53.8 °F /  12.1 °C 29.79in /  1008.7hPa SSE 4.0mph /  6.4km/h 6.0mph /  9.7km/h 66% 0.00in /  0mm 0.0 W/m2
00:32 65.5 °F /  18.6 °C 54.3 °F /  12.4 °C 29.78in /  1008.4hPa SSE 6.0mph /  9.7km/h 8.0mph /  12.9km/h 67% 0.00in /  0mm 0.0 W/m2
00:38 65.1 °F /  18.4 °C 54.7 °F /  12.6 °C 29.78in /  1008.4hPa SSE 4.0mph /  6.4km/h 7.0mph /  11.3km/h 69% 0.00in /  0mm 0.0 W/m2
00:44 64.9 °F /  18.3 °C 54.5 °F /  12.5 °C 29.78in /  1008.4hPa Calm   4.0mph /  6.4km/h 69% 0.00in /  0mm 0.0 W/m2
00:50 64.9 °F /  18.3 °C 54.9 °F /  12.7 °C 29.78in /  1008.4hPa SSE 0.9mph /  1.4km/h 2.0mph /  3.2km/h 70% 0.00in /  0mm 0.0 W/m2
00:56 64.8 °F /  18.2 °C 55.2 °F /  12.9 °C 29.78in /  1008.4hPa SE 0.9mph /  1.4km/h 3.0mph /  4.8km/h 71% 0.00in /  0mm 0.0 W/m2
01:02 64.6 °F /  18.1 °C 55.0 °F /  12.8 °C 29.78in /  1008.4hPa Calm   3.0mph /  4.8km/h 71% 0.00in /  0mm 0.0 W/m2
01:08 64.4 °F /  18 °C 54.9 °F /  12.7 °C 29.78in /  1008.4hPa Calm   4.0mph /  6.4km/h 71% 0.00in /  0mm 0.0 W/m2
01:14 64.4 °F /  18 °C 54.9 °F /  12.7 °C 29.78in /  1008.4hPa SSE 4.0mph /  6.4km/h 4.0mph /  6.4km/h 71% 0.00in /  0mm 0.0 W/m2
01:20 64.2 °F /  17.9 °C 55.0 °F /  12.8 °C 29.78in /  1008.4hPa Calm   1.0mph /  1.6km/h 72% 0.00in /  0mm 0.0 W/m2
01:26 64.0 °F /  17.8 °C 55.2 °F /  12.9 °C 29.78in /  1008.4hPa Calm   4.0mph /  6.4km/h 73% 0.00in /  0mm 0.0 W/m2
01:32 63.9 °F /  17.7 °C 55.0 °F /  12.8 °C 29.77in /  1008hPa SSE 0.9mph /  1.4km/h 3.0mph /  4.8km/h 73% 0.00in /  0mm 0.0 W/m2
01:39 63.7 °F /  17.6 °C 55.2 °F /  12.9 °C 29.77in /  1008hPa SE 4.0mph /  6.4km/h 4.0mph /  6.4km/h 74% 0.00in /  0mm 0.0 W/m2
01:45 63.7 °F /  17.6 °C 55.6 °F /  13.1 °C 29.77in /  1008hPa East 2.0mph /  3.2km/h 4.0mph /  6.4km/h 75% 0.00in /  0mm 0.0 W/m2
01:51 63.5 °F /  17.5 °C 55.4 °F /  13 °C 29.77in /  1008hPa SSW 4.9mph /  7.9km/h 6.0mph /  9.7km/h 75% 0.00in /  0mm 0.0 W/m2
01:57 63.3 °F /  17.4 °C 55.2 °F /  12.9 °C 29.77in /  1008hPa Calm   7.0mph /  11.3km/h 75% 0.00in /  0mm 0.0 W/m2
02:03 63.5 °F /  17.5 °C 55.4 °F /  13 °C 29.77in /  1008hPa Calm   6.0mph /  9.7km/h 75% 0.00in /  0mm 0.0 W/m2
02:09 63.3 °F /  17.4 °C 55.6 °F /  13.1 °C 29.76in /  1007.7hPa SE 2.9mph /  4.7km/h 4.0mph /  6.4km/h 76% 0.00in /  0mm 0.0 W/m2
02:15 63.3 °F /  17.4 °C 55.2 °F /  12.9 °C 29.76in /  1007.7hPa ESE 0.9mph /  1.4km/h 7.0mph /  11.3km/h 75% 0.00in /  0mm 0.0 W/m2
02:22 63.1 °F /  17.3 °C 55.0 °F /  12.8 °C 29.76in /  1007.7hPa SSE 6.9mph /  11.1km/h 7.0mph /  11.3km/h 75% 0.00in /  0mm 0.0 W/m2
02:28 63.3 °F /  17.4 °C 54.9 °F /  12.7 °C 29.76in /  1007.7hPa SSE 0.9mph /  1.4km/h 5.0mph /  8km/h 74% 0.00in /  0mm 0.0 W/m2
02:34 63.3 °F /  17.4 °C 54.9 °F /  12.7 °C 29.76in /  1007.7hPa SE 2.9mph /  4.7km/h 8.0mph /  12.9km/h 74% 0.00in /  0mm 0.0 W/m2
02:40 63.1 °F /  17.3 °C 54.7 °F /  12.6 °C 29.76in /  1007.7hPa SE 11.0mph /  17.7km/h 11.0mph /  17.7km/h 74% 0.00in /  0mm 0.0 W/m2
02:46 63.1 °F /  17.3 °C 55.0 °F /  12.8 °C 29.75in /  1007.3hPa South 6.0mph /  9.7km/h 6.0mph /  9.7km/h 75% 0.00in /  0mm 0.0 W/m2
02:52 63.1 °F /  17.3 °C 55.0 °F /  12.8 °C 29.75in /  1007.3hPa SSW 2.0mph /  3.2km/h 7.0mph /  11.3km/h 75% 0.00in /  0mm 0.0 W/m2
02:58 63.1 °F /  17.3 °C 55.0 °F /  12.8 °C 29.75in /  1007.3hPa Calm   2.0mph /  3.2km/h 75% 0.00in /  0mm 0.0 W/m2
03:04 63.1 °F /  17.3 °C 55.0 °F /  12.8 °C 29.75in /  1007.3hPa SE 8.1mph /  13km/h 9.0mph /  14.5km/h 75% 0.00in /  0mm 0.0 W/m2
03:11 63.0 °F /  17.2 °C 54.9 °F /  12.7 °C 29.74in /  1007hPa SE 4.9mph /  7.9km/h 9.0mph /  14.5km/h 75% 0.00in /  0mm 0.0 W/m2
03:17 63.1 °F /  17.3 °C 54.7 °F /  12.6 °C 29.74in /  1007hPa South 4.0mph /  6.4km/h 5.0mph /  8km/h 74% 0.00in /  0mm 0.0 W/m2
03:23 63.1 °F /  17.3 °C 54.7 °F /  12.6 °C 29.74in /  1007hPa Calm   9.0mph /  14.5km/h 74% 0.00in /  0mm 0.0 W/m2
03:29 63.1 °F /  17.3 °C 54.7 °F /  12.6 °C 29.74in /  1007hPa SSW 0.9mph /  1.4km/h 5.0mph /  8km/h 74% 0.00in /  0mm 0.0 W/m2
03:35 63.1 °F /  17.3 °C 54.3 °F /  12.4 °C 29.73in /  1006.7hPa Calm   6.0mph /  9.7km/h 73% 0.00in /  0mm 0.0 W/m2
03:41 63.1 °F /  17.3 °C 54.0 °F /  12.2 °C 29.73in /  1006.7hPa SW 6.0mph /  9.7km/h 7.0mph /  11.3km/h 72% 0.00in /  0mm 0.0 W/m2
03:47 63.1 °F /  17.3 °C 54.0 °F /  12.2 °C 29.73in /  1006.7hPa South 2.0mph /  3.2km/h 4.0mph /  6.4km/h 72% 0.00in /  0mm 0.0 W/m2
03:53 63.1 °F /  17.3 °C 53.2 °F /  11.8 °C 29.74in /  1007hPa SSE 2.0mph /  3.2km/h 4.0mph /  6.4km/h 70% 0.00in /  0mm 0.0 W/m2
04:00 63.1 °F /  17.3 °C 54.0 °F /  12.2 °C 29.73in /  1006.7hPa Calm   2.0mph /  3.2km/h 72% 0.00in /  0mm 0.0 W/m2
04:06 63.1 °F /  17.3 °C 53.6 °F /  12 °C 29.73in /  1006.7hPa Calm   4.0mph /  6.4km/h 71% 0.00in /  0mm 0.0 W/m2
04:12 63.0 °F /  17.2 °C 53.8 °F /  12.1 °C 29.73in /  1006.7hPa Calm   1.0mph /  1.6km/h 72% 0.00in /  0mm 0.0 W/m2
04:18 63.0 °F /  17.2 °C 53.8 °F /  12.1 °C 29.73in /  1006.7hPa SW 2.0mph /  3.2km/h 6.0mph /  9.7km/h 72% 0.00in /  0mm 0.0 W/m2
04:24 62.8 °F /  17.1 °C 53.6 °F /  12 °C 29.73in /  1006.7hPa Calm   5.0mph /  8km/h 72% 0.00in /  0mm 0.0 W/m2
04:30 62.8 °F /  17.1 °C 54.3 °F /  12.4 °C 29.73in /  1006.7hPa Calm   3.0mph /  4.8km/h 74% 0.00in /  0mm 0.0 W/m2
04:36 62.6 °F /  17 °C 54.1 °F /  12.3 °C 29.73in /  1006.7hPa Calm   6.0mph /  9.7km/h 74% 0.00in /  0mm 0.0 W/m2
04:43 62.4 °F /  16.9 °C 54.0 °F /  12.2 °C 29.73in /  1006.7hPa Calm   1.0mph /  1.6km/h 74% 0.00in /  0mm 0.0 W/m2
04:49 62.4 °F /  16.9 °C 53.6 °F /  12 °C 29.73in /  1006.7hPa SW 0.9mph /  1.4km/h 2.0mph /  3.2km/h 73% 0.00in /  0mm 0.0 W/m2
04:55 62.4 °F /  16.9 °C 53.2 °F /  11.8 °C 29.72in /  1006.3hPa SE 0.9mph /  1.4km/h 7.0mph /  11.3km/h 72% 0.00in /  0mm 0.0 W/m2
05:01 62.4 °F /  16.9 °C 53.6 °F /  12 °C 29.72in /  1006.3hPa SSW 2.9mph /  4.7km/h 3.0mph /  4.8km/h 73% 0.00in /  0mm 0.0 W/m2
05:07 62.4 °F /  16.9 °C 54.0 °F /  12.2 °C 29.73in /  1006.7hPa Calm   4.0mph /  6.4km/h 74% 0.00in /  0mm 0.0 W/m2
05:13 62.2 °F /  16.8 °C 53.4 °F /  11.9 °C 29.73in /  1006.7hPa SE 0.9mph /  1.4km/h 3.0mph /  4.8km/h 73% 0.00in /  0mm 0.0 W/m2
05:19 62.2 °F /  16.8 °C 53.4 °F /  11.9 °C 29.73in /  1006.7hPa Calm   1.0mph /  1.6km/h 73% 0.00in /  0mm 0.0 W/m2
05:26 62.1 °F /  16.7 °C 53.6 °F /  12 °C 29.72in /  1006.3hPa Calm     74% 0.00in /  0mm 0.0 W/m2
05:32 62.1 °F /  16.7 °C 53.6 °F /  12 °C 29.72in /  1006.3hPa Calm     74% 0.00in /  0mm 0.0 W/m2
05:38 61.9 °F /  16.6 °C 53.8 °F /  12.1 °C 29.72in /  1006.3hPa Calm     75% 0.00in /  0mm 0.0 W/m2
05:44 61.5 °F /  16.4 °C 53.2 °F /  11.8 °C 29.72in /  1006.3hPa ESE 2.9mph /  4.7km/h 3.0mph /  4.8km/h 74% 0.00in /  0mm 0.0 W/m2
05:50 61.3 °F /  16.3 °C 53.4 °F /  11.9 °C 29.72in /  1006.3hPa ESE 0.9mph /  1.4km/h 1.0mph /  1.6km/h 75% 0.00in /  0mm 0.0 W/m2
05:56 61.2 °F /  16.2 °C 53.2 °F /  11.8 °C 29.72in /  1006.3hPa Calm     75% 0.00in /  0mm 0.0 W/m2
06:02 60.8 °F /  16 °C 52.9 °F /  11.6 °C 29.73in /  1006.7hPa Calm     75% 0.00in /  0mm 0.0 W/m2
06:08 60.4 °F /  15.8 °C 53.2 °F /  11.8 °C 29.73in /  1006.7hPa Calm   1.0mph /  1.6km/h 77% 0.00in /  0mm 0.0 W/m2
06:15 60.3 °F /  15.7 °C 53.1 °F /  11.7 °C 29.73in /  1006.7hPa Calm     77% 0.00in /  0mm 0.0 W/m2
06:21 59.7 °F /  15.4 °C 53.2 °F /  11.8 °C 29.73in /  1006.7hPa Calm   2.0mph /  3.2km/h 79% 0.00in /  0mm 0.0 W/m2
06:27 59.5 °F /  15.3 °C 53.1 °F /  11.7 °C 29.74in /  1007hPa Calm     79% 0.00in /  0mm 0.0 W/m2
06:33 59.2 °F /  15.1 °C 53.1 °F /  11.7 °C 29.74in /  1007hPa Calm     80% 0.00in /  0mm 0.0 W/m2
06:39 58.6 °F /  14.8 °C 52.2 °F /  11.2 °C 29.74in /  1007hPa Calm   1.0mph /  1.6km/h 79% 0.00in /  0mm 0.0 W/m2
06:45 58.5 °F /  14.7 °C 52.3 °F /  11.3 °C 29.74in /  1007hPa Calm   1.0mph /  1.6km/h 80% 0.00in /  0mm 0.0 W/m2
06:51 58.3 °F /  14.6 °C 52.2 °F /  11.2 °C 29.74in /  1007hPa Calm   1.0mph /  1.6km/h 80% 0.00in /  0mm 5.0 W/m2
06:57 57.9 °F /  14.4 °C 51.8 °F /  11 °C 29.74in /  1007hPa Calm   1.0mph /  1.6km/h 80% 0.00in /  0mm 7.0 W/m2
07:03 57.9 °F /  14.4 °C 51.8 °F /  11 °C 29.74in /  1007hPa Calm     80% 0.00in /  0mm 11.0 W/m2
07:09 57.7 °F /  14.3 °C 51.6 °F /  10.9 °C 29.75in /  1007.3hPa Calm   1.0mph /  1.6km/h 80% 0.00in /  0mm 12.0 W/m2
07:16 57.7 °F /  14.3 °C 51.6 °F /  10.9 °C 29.75in /  1007.3hPa Calm     80% 0.00in /  0mm 14.0 W/m2
07:22 57.7 °F /  14.3 °C 52.0 °F /  11.1 °C 29.75in /  1007.3hPa Calm     81% 0.00in /  0mm 16.0 W/m2
07:28 57.7 °F /  14.3 °C 52.0 °F /  11.1 °C 29.75in /  1007.3hPa Calm   1.0mph /  1.6km/h 81% 0.00in /  0mm 18.0 W/m2
07:34 57.7 °F /  14.3 °C 51.6 °F /  10.9 °C 29.75in /  1007.3hPa Calm   1.0mph /  1.6km/h 80% 0.00in /  0mm 19.0 W/m2
07:40 57.9 °F /  14.4 °C 51.8 °F /  11 °C 29.75in /  1007.3hPa Calm   1.0mph /  1.6km/h 80% 0.00in /  0mm 21.0 W/m2
07:46 58.3 °F /  14.6 °C 51.8 °F /  11 °C 29.76in /  1007.7hPa Calm     79% 0.00in /  0mm 33.0 W/m2
07:52 58.6 °F /  14.8 °C 52.2 °F /  11.2 °C 29.76in /  1007.7hPa Calm   1.0mph /  1.6km/h 79% 0.00in /  0mm 23.0 W/m2
07:59 59.2 °F /  15.1 °C 52.7 °F /  11.5 °C 29.76in /  1007.7hPa Calm     79% 0.00in /  0mm 25.0 W/m2
08:05 59.5 °F /  15.3 °C 53.1 °F /  11.7 °C 29.76in /  1007.7hPa Calm   1.0mph /  1.6km/h 79% 0.00in /  0mm 25.0 W/m2
08:11 60.4 °F /  15.8 °C 52.9 °F /  11.6 °C 29.76in /  1007.7hPa Calm   1.0mph /  1.6km/h 76% 0.00in /  0mm 26.0 W/m2
08:17 61.0 °F /  16.1 °C 51.4 °F /  10.8 °C 29.76in /  1007.7hPa Calm     71% 0.00in /  0mm 26.0 W/m2
08:23 61.7 °F /  16.5 °C 50.2 °F /  10.1 °C 29.77in /  1008hPa Calm     66% 0.00in /  0mm 28.0 W/m2
08:29 62.4 °F /  16.9 °C 50.0 °F /  10 °C 29.76in /  1007.7hPa Calm   2.0mph /  3.2km/h 64% 0.00in /  0mm 28.0 W/m2
08:35 63.3 °F /  17.4 °C 51.4 °F /  10.8 °C 29.77in /  1008hPa Calm     65% 0.00in /  0mm 30.0 W/m2
08:42 64.0 °F /  17.8 °C 49.8 °F /  9.9 °C 29.77in /  1008hPa SSE 0.9mph /  1.4km/h 1.0mph /  1.6km/h 60% 0.00in /  0mm 32.0 W/m2
08:48 64.9 °F /  18.3 °C 48.4 °F /  9.1 °C 29.77in /  1008hPa NNE 2.9mph /  4.7km/h 4.0mph /  6.4km/h 55% 0.00in /  0mm 40.0 W/m2
08:54 65.8 °F /  18.8 °C 48.2 °F /  9 °C 29.78in /  1008.4hPa ENE 0.9mph /  1.4km/h 2.0mph /  3.2km/h 53% 0.00in /  0mm 116.0 W/m2
09:00 66.7 °F /  19.3 °C 48.6 °F /  9.2 °C 29.78in /  1008.4hPa NE 2.0mph /  3.2km/h 2.0mph /  3.2km/h 52% 0.00in /  0mm 520.0 W/m2
09:06 67.8 °F /  19.9 °C 48.6 °F /  9.2 °C 29.78in /  1008.4hPa East 2.9mph /  4.7km/h 6.0mph /  9.7km/h 50% 0.00in /  0mm 545.0 W/m2
09:12 69.4 °F /  20.8 °C 48.9 °F /  9.4 °C 29.78in /  1008.4hPa Calm   2.0mph /  3.2km/h 48% 0.00in /  0mm 568.0 W/m2
09:18 71.1 °F /  21.7 °C 49.3 °F /  9.6 °C 29.78in /  1008.4hPa East 2.0mph /  3.2km/h 3.0mph /  4.8km/h 46% 0.00in /  0mm 591.0 W/m2
09:25 72.1 °F /  22.3 °C 47.8 °F /  8.8 °C 29.78in /  1008.4hPa Calm   1.0mph /  1.6km/h 42% 0.00in /  0mm 612.0 W/m2
09:31 72.9 °F /  22.7 °C 49.1 °F /  9.5 °C 29.78in /  1008.4hPa South 2.9mph /  4.7km/h 3.0mph /  4.8km/h 43% 0.00in /  0mm 638.0 W/m2
09:37 73.2 °F /  22.9 °C 48.0 °F /  8.9 °C 29.78in /  1008.4hPa SE 0.9mph /  1.4km/h 5.0mph /  8km/h 41% 0.00in /  0mm 659.0 W/m2
09:43 74.1 °F /  23.4 °C 47.7 °F /  8.7 °C 29.78in /  1008.4hPa Calm   4.0mph /  6.4km/h 39% 0.00in /  0mm 680.0 W/m2
09:49 74.7 °F /  23.7 °C 47.3 °F /  8.5 °C 29.78in /  1008.4hPa ESE 2.0mph /  3.2km/h 5.0mph /  8km/h 38% 0.00in /  0mm 701.0 W/m2
09:55 74.7 °F /  23.7 °C 47.3 °F /  8.5 °C 29.78in /  1008.4hPa SSE 4.0mph /  6.4km/h 6.0mph /  9.7km/h 38% 0.00in /  0mm 722.0 W/m2
10:03 75.0 °F /  23.9 °C 48.4 °F /  9.1 °C 29.78in /  1008.4hPa Calm   3.0mph /  4.8km/h 39% 0.00in /  0mm 747.0 W/m2
10:09 75.6 °F /  24.2 °C 47.5 °F /  8.6 °C 29.78in /  1008.4hPa ESE 4.0mph /  6.4km/h 4.0mph /  6.4km/h 37% 0.00in /  0mm 766.0 W/m2
10:16 75.9 °F /  24.4 °C 45.5 °F /  7.5 °C 29.78in /  1008.4hPa SSE 0.9mph /  1.4km/h 3.0mph /  4.8km/h 34% 0.00in /  0mm 784.0 W/m2
10:22 76.5 °F /  24.7 °C 46.8 °F /  8.2 °C 29.79in /  1008.7hPa SSE 2.9mph /  4.7km/h 3.0mph /  4.8km/h 35% 0.00in /  0mm 803.0 W/m2
10:28 76.5 °F /  24.7 °C 46.0 °F /  7.8 °C 29.79in /  1008.7hPa SE 2.9mph /  4.7km/h 10.0mph /  16.1km/h 34% 0.00in /  0mm 819.0 W/m2
10:34 76.8 °F /  24.9 °C 45.5 °F /  7.5 °C 29.78in /  1008.4hPa Calm   2.0mph /  3.2km/h 33% 0.00in /  0mm 840.0 W/m2
10:40 77.4 °F /  25.2 °C 46.8 °F /  8.2 °C 29.78in /  1008.4hPa NNE 2.9mph /  4.7km/h 5.0mph /  8km/h 34% 0.00in /  0mm 854.0 W/m2
10:46 78.1 °F /  25.6 °C 48.2 °F /  9 °C 29.78in /  1008.4hPa ESE 6.9mph /  11.1km/h 21.0mph /  33.8km/h 35% 0.00in /  0mm 872.0 W/m2
10:52 78.1 °F /  25.6 °C 47.5 °F /  8.6 °C 29.78in /  1008.4hPa East 0.9mph /  1.4km/h 6.0mph /  9.7km/h 34% 0.00in /  0mm 886.0 W/m2
10:58 78.3 °F /  25.7 °C 46.8 °F /  8.2 °C 29.78in /  1008.4hPa East 4.0mph /  6.4km/h 5.0mph /  8km/h 33% 0.00in /  0mm 904.0 W/m2
11:05 78.3 °F /  25.7 °C 46.0 °F /  7.8 °C 29.78in /  1008.4hPa East 2.0mph /  3.2km/h 7.0mph /  11.3km/h 32% 0.00in /  0mm 916.0 W/m2
11:11 78.4 °F /  25.8 °C 46.2 °F /  7.9 °C 29.78in /  1008.4hPa South 0.9mph /  1.4km/h 3.0mph /  4.8km/h 32% 0.00in /  0mm 928.0 W/m2
11:17 78.4 °F /  25.8 °C 45.3 °F /  7.4 °C 29.78in /  1008.4hPa West 0.9mph /  1.4km/h 2.0mph /  3.2km/h 31% 0.00in /  0mm 944.0 W/m2
11:23 78.4 °F /  25.8 °C 47.7 °F /  8.7 °C 29.77in /  1008hPa ENE 2.0mph /  3.2km/h 4.0mph /  6.4km/h 34% 0.00in /  0mm 954.0 W/m2
11:29 79.0 °F /  26.1 °C 47.5 °F /  8.6 °C 29.77in /  1008hPa ESE 2.0mph /  3.2km/h 5.0mph /  8km/h 33% 0.00in /  0mm 965.0 W/m2
11:35 79.3 °F /  26.3 °C 46.0 °F /  7.8 °C 29.77in /  1008hPa North 4.0mph /  6.4km/h 5.0mph /  8km/h 31% 0.00in /  0mm 977.0 W/m2
11:41 79.9 °F /  26.6 °C 46.6 °F /  8.1 °C 29.77in /  1008hPa North 2.0mph /  3.2km/h 2.0mph /  3.2km/h 31% 0.00in /  0mm 983.0 W/m2
11:48 80.4 °F /  26.9 °C 46.9 °F /  8.3 °C 29.76in /  1007.7hPa North 2.9mph /  4.7km/h 4.0mph /  6.4km/h 31% 0.00in /  0mm 995.0 W/m2
11:54 81.0 °F /  27.2 °C 49.1 °F /  9.5 °C 29.76in /  1007.7hPa NW 2.9mph /  4.7km/h 3.0mph /  4.8km/h 33% 0.00in /  0mm 1004.0 W/m2
12:00 81.1 °F /  27.3 °C 47.7 °F /  8.7 °C 29.76in /  1007.7hPa SE 2.0mph /  3.2km/h 8.0mph /  12.9km/h 31% 0.00in /  0mm 1009.0 W/m2
12:06 81.1 °F /  27.3 °C 46.8 °F /  8.2 °C 29.76in /  1007.7hPa ESE 2.0mph /  3.2km/h 4.0mph /  6.4km/h 30% 0.00in /  0mm 1030.0 W/m2
12:12 81.1 °F /  27.3 °C 47.7 °F /  8.7 °C 29.76in /  1007.7hPa SSE 0.9mph /  1.4km/h 6.0mph /  9.7km/h 31% 0.00in /  0mm 1041.0 W/m2
12:18 81.1 °F /  27.3 °C 47.7 °F /  8.7 °C 29.76in /  1007.7hPa South 4.9mph /  7.9km/h 5.0mph /  8km/h 31% 0.00in /  0mm 1035.0 W/m2
12:24 81.0 °F /  27.2 °C 47.5 °F /  8.6 °C 29.75in /  1007.3hPa SSE 0.9mph /  1.4km/h 4.0mph /  6.4km/h 31% 0.00in /  0mm 1042.0 W/m2
12:30 81.0 °F /  27.2 °C 45.7 °F /  7.6 °C 29.75in /  1007.3hPa Calm   5.0mph /  8km/h 29% 0.00in /  0mm 1055.0 W/m2
12:37 81.0 °F /  27.2 °C 46.6 °F /  8.1 °C 29.75in /  1007.3hPa SE 2.9mph /  4.7km/h 4.0mph /  6.4km/h 30% 0.00in /  0mm 1049.0 W/m2
12:43 81.1 °F /  27.3 °C 46.8 °F /  8.2 °C 29.75in /  1007.3hPa South 2.9mph /  4.7km/h 7.0mph /  11.3km/h 30% 0.00in /  0mm 1062.0 W/m2
12:49 81.1 °F /  27.3 °C 46.8 °F /  8.2 °C 29.75in /  1007.3hPa SE 4.0mph /  6.4km/h 8.0mph /  12.9km/h 30% 0.00in /  0mm 1074.0 W/m2
12:55 81.5 °F /  27.5 °C 48.0 °F /  8.9 °C 29.74in /  1007hPa ESE 0.9mph /  1.4km/h 6.0mph /  9.7km/h 31% 0.00in /  0mm 1085.0 W/m2
13:01 81.9 °F /  27.7 °C 48.2 °F /  9 °C 29.74in /  1007hPa ESE 2.0mph /  3.2km/h 8.0mph /  12.9km/h 31% 0.00in /  0mm 1076.0 W/m2
13:07 81.3 °F /  27.4 °C 46.9 °F /  8.3 °C 29.74in /  1007hPa SSW 0.9mph /  1.4km/h 7.0mph /  11.3km/h 30% 0.00in /  0mm 1100.0 W/m2
13:13 80.8 °F /  27.1 °C 47.3 °F /  8.5 °C 29.73in /  1006.7hPa South 2.0mph /  3.2km/h 6.0mph /  9.7km/h 31% 0.00in /  0mm 1125.0 W/m2
13:20 81.0 °F /  27.2 °C 47.5 °F /  8.6 °C 29.73in /  1006.7hPa East 2.0mph /  3.2km/h 6.0mph /  9.7km/h 31% 0.00in /  0mm 1130.0 W/m2
13:26 81.3 °F /  27.4 °C 47.8 °F /  8.8 °C 29.73in /  1006.7hPa South 2.0mph /  3.2km/h 5.0mph /  8km/h 31% 0.00in /  0mm 1102.0 W/m2
13:32 81.5 °F /  27.5 °C 47.1 °F /  8.4 °C 29.73in /  1006.7hPa Calm   2.0mph /  3.2km/h 30% 0.00in /  0mm 1095.0 W/m2
13:38 82.0 °F /  27.8 °C 46.6 °F /  8.1 °C 29.73in /  1006.7hPa SSW 0.9mph /  1.4km/h 7.0mph /  11.3km/h 29% 0.00in /  0mm 1085.0 W/m2
13:44 81.7 °F /  27.6 °C 46.4 °F /  8 °C 29.73in /  1006.7hPa South 2.0mph /  3.2km/h 4.0mph /  6.4km/h 29% 0.00in /  0mm 1102.0 W/m2
13:50 82.0 °F /  27.8 °C 47.5 °F /  8.6 °C 29.72in /  1006.3hPa WNW 0.9mph /  1.4km/h 5.0mph /  8km/h 30% 0.00in /  0mm 1088.0 W/m2
13:56 82.8 °F /  28.2 °C 48.2 °F /  9 °C 29.72in /  1006.3hPa South 6.0mph /  9.7km/h 8.0mph /  12.9km/h 30% 0.00in /  0mm 1072.0 W/m2
14:02 81.9 °F /  27.7 °C 46.4 °F /  8 °C 29.72in /  1006.3hPa South 2.9mph /  4.7km/h 3.0mph /  4.8km/h 29% 0.00in /  0mm 1078.0 W/m2
14:08 82.0 °F /  27.8 °C 47.5 °F /  8.6 °C 29.72in /  1006.3hPa SSE 2.0mph /  3.2km/h 5.0mph /  8km/h 30% 0.00in /  0mm 1090.0 W/m2
14:15 82.8 °F /  28.2 °C 47.3 °F /  8.5 °C 29.72in /  1006.3hPa Calm   2.0mph /  3.2km/h 29% 0.00in /  0mm 1046.0 W/m2
14:23 82.2 °F /  27.9 °C 47.7 °F /  8.7 °C 29.72in /  1006.3hPa Calm   1.0mph /  1.6km/h 30% 0.00in /  0mm 229.0 W/m2
14:29 81.7 °F /  27.6 °C 47.3 °F /  8.5 °C 29.72in /  1006.3hPa Calm   4.0mph /  6.4km/h 30% 0.00in /  0mm 272.0 W/m2
14:35 81.0 °F /  27.2 °C 47.5 °F /  8.6 °C 29.72in /  1006.3hPa SW 0.9mph /  1.4km/h 6.0mph /  9.7km/h 31% 0.00in /  0mm 221.0 W/m2
14:42 80.1 °F /  26.7 °C 48.4 °F /  9.1 °C 29.71in /  1006hPa SSW 2.9mph /  4.7km/h 4.0mph /  6.4km/h 33% 0.00in /  0mm 221.0 W/m2
14:47 80.1 °F /  26.7 °C 48.4 °F /  9.1 °C 29.71in /  1006hPa Calm   2.0mph /  3.2km/h 33% 0.00in /  0mm 216.0 W/m2
14:54 80.8 °F /  27.1 °C 47.3 °F /  8.5 °C 29.71in /  1006hPa ENE 2.9mph /  4.7km/h 4.0mph /  6.4km/h 31% 0.00in /  0mm 169.0 W/m2
15:00 81.0 °F /  27.2 °C 47.5 °F /  8.6 °C 29.70in /  1005.6hPa Calm   3.0mph /  4.8km/h 31% 0.00in /  0mm 983.0 W/m2
15:06 81.5 °F /  27.5 °C 48.0 °F /  8.9 °C 29.70in /  1005.6hPa NW 2.9mph /  4.7km/h 3.0mph /  4.8km/h 31% 0.00in /  0mm 984.0 W/m2
15:12 82.2 °F /  27.9 °C 47.7 °F /  8.7 °C 29.70in /  1005.6hPa SW 0.9mph /  1.4km/h 3.0mph /  4.8km/h 30% 0.00in /  0mm 163.0 W/m2
15:18 81.3 °F /  27.4 °C 47.8 °F /  8.8 °C 29.70in /  1005.6hPa SSE 0.9mph /  1.4km/h 3.0mph /  4.8km/h 31% 0.00in /  0mm 171.0 W/m2
15:24 80.6 °F /  27 °C 48.9 °F /  9.4 °C 29.70in /  1005.6hPa East 2.0mph /  3.2km/h 5.0mph /  8km/h 33% 0.00in /  0mm 118.0 W/m2
15:30 80.1 °F /  26.7 °C 49.1 °F /  9.5 °C 29.70in /  1005.6hPa SSW 2.9mph /  4.7km/h 3.0mph /  4.8km/h 34% 0.00in /  0mm 128.0 W/m2
15:36 79.9 °F /  26.6 °C 48.2 °F /  9 °C 29.69in /  1005.3hPa SSE 2.0mph /  3.2km/h 5.0mph /  8km/h 33% 0.00in /  0mm 165.0 W/m2
15:43 79.5 °F /  26.4 °C 47.8 °F /  8.8 °C 29.69in /  1005.3hPa SSE 2.0mph /  3.2km/h 5.0mph /  8km/h 33% 0.00in /  0mm 207.0 W/m2
15:49 79.3 °F /  26.3 °C 48.6 °F /  9.2 °C 29.69in /  1005.3hPa Calm   4.0mph /  6.4km/h 34% 0.00in /  0mm 146.0 W/m2
15:55 79.2 °F /  26.2 °C 49.8 °F /  9.9 °C 29.68in /  1005hPa SSW 4.0mph /  6.4km/h 5.0mph /  8km/h 36% 0.00in /  0mm 135.0 W/m2
16:01 78.6 °F /  25.9 °C 49.5 °F /  9.7 °C 29.68in /  1005hPa South 4.0mph /  6.4km/h 7.0mph /  11.3km/h 36% 0.00in /  0mm 165.0 W/m2
16:07 78.4 °F /  25.8 °C 50.7 °F /  10.4 °C 29.68in /  1005hPa Calm   5.0mph /  8km/h 38% 0.00in /  0mm 179.0 W/m2
16:13 78.3 °F /  25.7 °C 51.3 °F /  10.7 °C 29.68in /  1005hPa SE 2.0mph /  3.2km/h 3.0mph /  4.8km/h 39% 0.00in /  0mm 171.0 W/m2
16:19 78.3 °F /  25.7 °C 49.1 °F /  9.5 °C 29.68in /  1005hPa SE 2.0mph /  3.2km/h 2.0mph /  3.2km/h 36% 0.00in /  0mm 116.0 W/m2
16:25 78.4 °F /  25.8 °C 49.3 °F /  9.6 °C 29.68in /  1005hPa Calm     36% 0.00in /  0mm 141.0 W/m2
16:31 78.4 °F /  25.8 °C 50.7 °F /  10.4 °C 29.68in /  1005hPa South 2.0mph /  3.2km/h 3.0mph /  4.8km/h 38% 0.00in /  0mm 153.0 W/m2
16:37 78.3 °F /  25.7 °C 48.4 °F /  9.1 °C 29.68in /  1005hPa SSW 4.9mph /  7.9km/h 10.0mph /  16.1km/h 35% 0.00in /  0mm 160.0 W/m2
16:44 78.3 °F /  25.7 °C 49.1 °F /  9.5 °C 29.68in /  1005hPa SW 2.9mph /  4.7km/h 3.0mph /  4.8km/h 36% 0.00in /  0mm 183.0 W/m2
16:50 78.1 °F /  25.6 °C 48.9 °F /  9.4 °C 29.68in /  1005hPa SSE 2.0mph /  3.2km/h 5.0mph /  8km/h 36% 0.00in /  0mm 165.0 W/m2
16:56 78.3 °F /  25.7 °C 48.4 °F /  9.1 °C 29.68in /  1005hPa Calm   2.0mph /  3.2km/h 35% 0.00in /  0mm 550.0 W/m2
17:02 79.3 °F /  26.3 °C 49.3 °F /  9.6 °C 29.67in /  1004.6hPa Calm   2.0mph /  3.2km/h 35% 0.00in /  0mm 589.0 W/m2
17:08 80.8 °F /  27.1 °C 48.9 °F /  9.4 °C 29.68in /  1005hPa SW 2.0mph /  3.2km/h 6.0mph /  9.7km/h 33% 0.00in /  0mm 570.0 W/m2
17:14 81.1 °F /  27.3 °C 49.3 °F /  9.6 °C 29.68in /  1005hPa SSW 4.0mph /  6.4km/h 8.0mph /  12.9km/h 33% 0.00in /  0mm 526.0 W/m2
17:20 81.7 °F /  27.6 °C 48.9 °F /  9.4 °C 29.67in /  1004.6hPa South 2.0mph /  3.2km/h 6.0mph /  9.7km/h 32% 0.00in /  0mm 480.0 W/m2
17:27 81.9 °F /  27.7 °C 49.1 °F /  9.5 °C 29.67in /  1004.6hPa South 0.9mph /  1.4km/h 4.0mph /  6.4km/h 32% 0.00in /  0mm 455.0 W/m2
17:33 82.6 °F /  28.1 °C 50.5 °F /  10.3 °C 29.68in /  1005hPa South 6.9mph /  11.1km/h 7.0mph /  11.3km/h 33% 0.00in /  0mm 441.0 W/m2
17:39 82.9 °F /  28.3 °C 50.0 °F /  10 °C 29.68in /  1005hPa ESE 4.9mph /  7.9km/h 7.0mph /  11.3km/h 32% 0.00in /  0mm 413.0 W/m2
17:45 82.9 °F /  28.3 °C 50.0 °F /  10 °C 29.68in /  1005hPa South 2.0mph /  3.2km/h 7.0mph /  11.3km/h 32% 0.00in /  0mm 390.0 W/m2
17:51 82.9 °F /  28.3 °C 50.0 °F /  10 °C 29.67in /  1004.6hPa ESE 6.9mph /  11.1km/h 8.0mph /  12.9km/h 32% 0.00in /  0mm 359.0 W/m2
17:57 82.9 °F /  28.3 °C 50.0 °F /  10 °C 29.68in /  1005hPa SSW 6.0mph /  9.7km/h 6.0mph /  9.7km/h 32% 0.00in /  0mm 327.0 W/m2
18:03 82.0 °F /  27.8 °C 49.3 °F /  9.6 °C 29.68in /  1005hPa SSE 2.9mph /  4.7km/h 6.0mph /  9.7km/h 32% 0.00in /  0mm 49.0 W/m2
18:09 81.1 °F /  27.3 °C 50.2 °F /  10.1 °C 29.68in /  1005hPa SSE 2.0mph /  3.2km/h 6.0mph /  9.7km/h 34% 0.00in /  0mm 44.0 W/m2
18:15 80.1 °F /  26.7 °C 50.0 °F /  10 °C 29.68in /  1005hPa SSW 4.9mph /  7.9km/h 5.0mph /  8km/h 35% 0.00in /  0mm 32.0 W/m2
18:22 79.2 °F /  26.2 °C 49.1 °F /  9.5 °C 29.68in /  1005hPa Calm   5.0mph /  8km/h 35% 0.00in /  0mm 28.0 W/m2
18:28 78.4 °F /  25.8 °C 49.3 °F /  9.6 °C 29.68in /  1005hPa South 2.0mph /  3.2km/h 4.0mph /  6.4km/h 36% 0.00in /  0mm 26.0 W/m2
18:34 78.1 °F /  25.6 °C 49.6 °F /  9.8 °C 29.68in /  1005hPa Calm   3.0mph /  4.8km/h 37% 0.00in /  0mm 26.0 W/m2
18:40 77.5 °F /  25.3 °C 50.0 °F /  10 °C 29.68in /  1005hPa SSE 0.9mph /  1.4km/h 3.0mph /  4.8km/h 38% 0.00in /  0mm 28.0 W/m2
18:46 77.4 °F /  25.2 °C 49.1 °F /  9.5 °C 29.68in /  1005hPa SE 2.9mph /  4.7km/h 6.0mph /  9.7km/h 37% 0.00in /  0mm 67.0 W/m2
18:52 77.2 °F /  25.1 °C 50.4 °F /  10.2 °C 29.68in /  1005hPa SSW 2.0mph /  3.2km/h 6.0mph /  9.7km/h 39% 0.00in /  0mm 67.0 W/m2
18:58 77.4 °F /  25.2 °C 50.5 °F /  10.3 °C 29.69in /  1005.3hPa SE 4.0mph /  6.4km/h 5.0mph /  8km/h 39% 0.00in /  0mm 25.0 W/m2
19:05 77.4 °F /  25.2 °C 50.5 °F /  10.3 °C 29.69in /  1005.3hPa Calm   2.0mph /  3.2km/h 39% 0.00in /  0mm 21.0 W/m2
19:11 77.2 °F /  25.1 °C 50.4 °F /  10.2 °C 29.69in /  1005.3hPa SE 2.0mph /  3.2km/h 2.0mph /  3.2km/h 39% 0.00in /  0mm 11.0 W/m2
19:17 76.8 °F /  24.9 °C 49.3 °F /  9.6 °C 29.69in /  1005.3hPa SSE 0.9mph /  1.4km/h 3.0mph /  4.8km/h 38% 0.00in /  0mm 5.0 W/m2
19:23 76.5 °F /  24.7 °C 49.6 °F /  9.8 °C 29.70in /  1005.6hPa SSE 2.0mph /  3.2km/h 3.0mph /  4.8km/h 39% 0.00in /  0mm 0.0 W/m2
19:29 75.9 °F /  24.4 °C 49.1 °F /  9.5 °C 29.70in /  1005.6hPa SE 2.0mph /  3.2km/h 4.0mph /  6.4km/h 39% 0.00in /  0mm 0.0 W/m2
19:35 75.7 °F /  24.3 °C 50.4 °F /  10.2 °C 29.70in /  1005.6hPa Calm   3.0mph /  4.8km/h 41% 0.00in /  0mm 0.0 W/m2
19:41 75.6 °F /  24.2 °C 50.9 °F /  10.5 °C 29.70in /  1005.6hPa SE 0.9mph /  1.4km/h 4.0mph /  6.4km/h 42% 0.00in /  0mm 0.0 W/m2
19:47 75.4 °F /  24.1 °C 51.3 °F /  10.7 °C 29.70in /  1005.6hPa ESE 0.9mph /  1.4km/h 1.0mph /  1.6km/h 43% 0.00in /  0mm 0.0 W/m2
19:54 75.0 °F /  23.9 °C 51.1 °F /  10.6 °C 29.70in /  1005.6hPa Calm   2.0mph /  3.2km/h 43% 0.00in /  0mm 0.0 W/m2
20:00 74.7 °F /  23.7 °C 51.3 °F /  10.7 °C 29.70in /  1005.6hPa Calm   2.0mph /  3.2km/h 44% 0.00in /  0mm 0.0 W/m2
20:06 74.5 °F /  23.6 °C 50.5 °F /  10.3 °C 29.70in /  1005.6hPa Calm   3.0mph /  4.8km/h 43% 0.00in /  0mm 0.0 W/m2
20:12 74.1 °F /  23.4 °C 50.9 °F /  10.5 °C 29.70in /  1005.6hPa Calm   2.0mph /  3.2km/h 44% 0.00in /  0mm 0.0 W/m2
20:18 73.9 °F /  23.3 °C 50.7 °F /  10.4 °C 29.71in /  1006hPa Calm   1.0mph /  1.6km/h 44% 0.00in /  0mm 0.0 W/m2
20:24 73.8 °F /  23.2 °C 50.5 °F /  10.3 °C 29.71in /  1006hPa ESE 0.9mph /  1.4km/h 2.0mph /  3.2km/h 44% 0.00in /  0mm 0.0 W/m2
20:30 73.6 °F /  23.1 °C 50.9 °F /  10.5 °C 29.72in /  1006.3hPa Calm     45% 0.00in /  0mm 0.0 W/m2
20:37 73.4 °F /  23 °C 50.7 °F /  10.4 °C 29.72in /  1006.3hPa Calm     45% 0.00in /  0mm 0.0 W/m2
20:43 73.2 °F /  22.9 °C 51.3 °F /  10.7 °C 29.72in /  1006.3hPa NW 0.9mph /  1.4km/h 2.0mph /  3.2km/h 46% 0.00in /  0mm 0.0 W/m2
20:53 73.0 °F /  22.8 °C 51.1 °F /  10.6 °C 29.73in /  1006.7hPa Calm   4.0mph /  6.4km/h 46% 0.00in /  0mm 0.0 W/m2
20:59 72.9 °F /  22.7 °C 52.0 °F /  11.1 °C 29.73in /  1006.7hPa Calm   3.0mph /  4.8km/h 48% 0.00in /  0mm 0.0 W/m2
21:05 72.9 °F /  22.7 °C 51.4 °F /  10.8 °C 29.73in /  1006.7hPa Calm   4.0mph /  6.4km/h 47% 0.00in /  0mm 0.0 W/m2
21:11 72.5 °F /  22.5 °C 51.6 °F /  10.9 °C 29.74in /  1007hPa Calm   2.0mph /  3.2km/h 48% 0.00in /  0mm 0.0 W/m2
21:17 72.3 °F /  22.4 °C 52.7 °F /  11.5 °C 29.74in /  1007hPa NW 0.9mph /  1.4km/h 4.0mph /  6.4km/h 50% 0.00in /  0mm 0.0 W/m2
21:24 72.0 °F /  22.2 °C 52.3 °F /  11.3 °C 29.74in /  1007hPa NW 2.0mph /  3.2km/h 5.0mph /  8km/h 50% 0.00in /  0mm 0.0 W/m2
21:30 71.8 °F /  22.1 °C 52.2 °F /  11.2 °C 29.75in /  1007.3hPa Calm   1.0mph /  1.6km/h 50% 0.00in /  0mm 0.0 W/m2
21:36 71.4 °F /  21.9 °C 52.9 °F /  11.6 °C 29.75in /  1007.3hPa NW 0.9mph /  1.4km/h 2.0mph /  3.2km/h 52% 0.00in /  0mm 0.0 W/m2
21:42 71.2 °F /  21.8 °C 53.2 °F /  11.8 °C 29.75in /  1007.3hPa Calm     53% 0.00in /  0mm 0.0 W/m2
21:48 71.1 °F /  21.7 °C 53.6 °F /  12 °C 29.75in /  1007.3hPa Calm   1.0mph /  1.6km/h 54% 0.00in /  0mm 0.0 W/m2
21:54 70.9 °F /  21.6 °C 52.9 °F /  11.6 °C 29.75in /  1007.3hPa Calm   2.0mph /  3.2km/h 53% 0.00in /  0mm 0.0 W/m2
22:00 70.5 °F /  21.4 °C 53.6 °F /  12 °C 29.75in /  1007.3hPa Calm   2.0mph /  3.2km/h 55% 0.00in /  0mm 0.0 W/m2
22:06 70.5 °F /  21.4 °C 54.1 °F /  12.3 °C 29.76in /  1007.7hPa SW 0.9mph /  1.4km/h 1.0mph /  1.6km/h 56% 0.00in /  0mm 0.0 W/m2
22:12 70.3 °F /  21.3 °C 54.0 °F /  12.2 °C 29.76in /  1007.7hPa Calm   1.0mph /  1.6km/h 56% 0.00in /  0mm 0.0 W/m2
22:19 70.2 °F /  21.2 °C 54.1 °F /  12.3 °C 29.76in /  1007.7hPa Calm     57% 0.00in /  0mm 0.0 W/m2
22:25 70.2 °F /  21.2 °C 54.1 °F /  12.3 °C 29.76in /  1007.7hPa Calm   1.0mph /  1.6km/h 57% 0.00in /  0mm 0.0 W/m2
22:31 70.0 °F /  21.1 °C 54.5 °F /  12.5 °C 29.76in /  1007.7hPa Calm   1.0mph /  1.6km/h 58% 0.00in /  0mm 0.0 W/m2
22:37 69.6 °F /  20.9 °C 54.1 °F /  12.3 °C 29.76in /  1007.7hPa Calm     58% 0.00in /  0mm 0.0 W/m2
22:43 69.4 °F /  20.8 °C 54.5 °F /  12.5 °C 29.76in /  1007.7hPa Calm     59% 0.00in /  0mm 0.0 W/m2
22:49 69.1 °F /  20.6 °C 54.1 °F /  12.3 °C 29.76in /  1007.7hPa Calm     59% 0.00in /  0mm 0.0 W/m2
22:55 68.7 °F /  20.4 °C 54.7 °F /  12.6 °C 29.77in /  1008hPa Calm     61% 0.00in /  0mm 0.0 W/m2
23:02 68.5 °F /  20.3 °C 54.1 °F /  12.3 °C 29.77in /  1008hPa Calm   1.0mph /  1.6km/h 60% 0.00in /  0mm 0.0 W/m2
23:08 68.4 °F /  20.2 °C 54.3 °F /  12.4 °C 29.77in /  1008hPa Calm   1.0mph /  1.6km/h 61% 0.00in /  0mm 0.0 W/m2
23:14 68.2 °F /  20.1 °C 54.1 °F /  12.3 °C 29.77in /  1008hPa Calm   1.0mph /  1.6km/h 61% 0.00in /  0mm 0.0 W/m2
23:20 68.0 °F /  20 °C 54.9 °F /  12.7 °C 29.77in /  1008hPa Calm   1.0mph /  1.6km/h 63% 0.00in /  0mm 0.0 W/m2
23:26 67.6 °F /  19.8 °C 55.0 °F /  12.8 °C 29.78in /  1008.4hPa Calm   1.0mph /  1.6km/h 64% 0.00in /  0mm 0.0 W/m2
23:32 67.5 °F /  19.7 °C 54.9 °F /  12.7 °C 29.78in /  1008.4hPa Calm   1.0mph /  1.6km/h 64% 0.00in /  0mm 0.0 W/m2
23:38 67.3 °F /  19.6 °C 54.3 °F /  12.4 °C 29.78in /  1008.4hPa SE 0.9mph /  1.4km/h 3.0mph /  4.8km/h 63% 0.00in /  0mm 0.0 W/m2
23:44 67.1 °F /  19.5 °C 54.5 °F /  12.5 °C 29.78in /  1008.4hPa SE 0.9mph /  1.4km/h 3.0mph /  4.8km/h 64% 0.00in /  0mm 0.0 W/m2
23:50 66.7 °F /  19.3 °C 53.8 °F /  12.1 °C 29.78in /  1008.4hPa SSE 2.9mph /  4.7km/h 3.0mph /  4.8km/h 63% 0.00in /  0mm 0.0 W/m2
23:56 66.6 °F /  19.2 °C 53.1 °F /  11.7 °C 29.78in /  1008.4hPa Calm   3.0mph /  4.8km/h 62% 0.00in /  0mm 0.0 W/m2
Olympia, Windhoek, Namibia
Compliments of Weather Underground - 3 mb